createdAt,value
2019-06-20T00:00:54.396Z,25.01
2019-06-20T00:02:58.157Z,24.97
2019-06-20T00:05:02.045Z,24.96
2019-06-20T00:07:05.940Z,24.99
2019-06-20T00:09:09.900Z,25.01
2019-06-20T00:11:14.837Z,24.96
2019-06-20T00:13:18.741Z,24.88
2019-06-20T00:15:22.725Z,24.80
2019-06-20T00:17:26.468Z,24.76
2019-06-20T00:19:30.380Z,24.68
2019-06-20T00:21:34.266Z,24.63
2019-06-20T00:23:38.181Z,24.58
2019-06-20T00:25:42.092Z,24.51
2019-06-20T00:27:46.458Z,24.48
2019-06-20T00:29:50.334Z,24.48
2019-06-20T00:31:54.238Z,24.45
2019-06-20T00:33:58.102Z,24.42
2019-06-20T00:36:02.030Z,24.43
2019-06-20T00:38:09.137Z,24.43
2019-06-20T00:40:13.653Z,24.44
2019-06-20T00:42:17.402Z,24.39
2019-06-20T00:44:21.312Z,24.29
2019-06-20T00:46:25.239Z,24.18
2019-06-20T00:48:29.139Z,24.10
2019-06-20T00:50:33.108Z,24.05
2019-06-20T00:52:36.948Z,23.94
2019-06-20T00:54:40.925Z,23.90
2019-06-20T00:56:44.760Z,23.86
2019-06-20T00:58:48.565Z,23.77
2019-06-20T01:00:52.384Z,23.76
2019-06-20T01:02:56.152Z,23.80
2019-06-20T01:04:59.976Z,23.82
2019-06-20T01:07:03.882Z,23.81
2019-06-20T01:09:08.602Z,23.79
2019-06-20T01:11:12.568Z,23.80
2019-06-20T01:13:32.258Z,23.76
2019-06-20T01:15:22.282Z,23.71
2019-06-20T01:17:26.035Z,23.64
2019-06-20T01:19:30.035Z,23.58
2019-06-20T01:21:33.880Z,23.55
2019-06-20T01:23:37.835Z,23.48
2019-06-20T01:25:43.194Z,23.40
2019-06-20T01:27:46.994Z,23.34
2019-06-20T01:29:50.897Z,23.31
2019-06-20T01:31:54.885Z,23.29
2019-06-20T01:33:58.707Z,23.28
2019-06-20T01:36:05.116Z,23.29
2019-06-20T01:38:08.987Z,23.29
2019-06-20T01:40:13.046Z,23.26
2019-06-20T01:42:16.877Z,23.23
2019-06-20T01:44:20.685Z,23.18
2019-06-20T01:46:24.652Z,23.18
2019-06-20T01:48:28.570Z,23.18
2019-06-20T01:50:32.423Z,23.13
2019-06-20T01:52:36.328Z,23.02
2019-06-20T01:54:40.351Z,22.92
2019-06-20T01:56:44.121Z,22.78
2019-06-20T01:58:48.092Z,22.66
2019-06-20T02:00:52.188Z,22.55
2019-06-20T02:02:56.048Z,22.44
2019-06-20T02:04:59.963Z,22.32
2019-06-20T02:07:04.062Z,22.17
2019-06-20T02:09:08.941Z,22.11
2019-06-20T02:11:12.698Z,22.08
2019-06-20T02:13:16.579Z,22.01
2019-06-20T02:15:20.686Z,21.96
2019-06-20T02:17:24.605Z,21.87
2019-06-20T02:19:28.491Z,21.77
2019-06-20T02:21:32.485Z,21.69
2019-06-20T02:23:36.336Z,21.59
2019-06-20T02:25:40.232Z,21.47
2019-06-20T02:27:44.189Z,21.38
2019-06-20T02:29:48.088Z,21.26
2019-06-20T02:31:52.016Z,21.10
2019-06-20T02:33:55.830Z,20.85
2019-06-20T02:35:59.732Z,20.65
2019-06-20T02:38:03.782Z,20.45
2019-06-20T02:40:07.715Z,20.27
2019-06-20T02:42:11.454Z,20.17
2019-06-20T02:44:29.895Z,20.17
2019-06-20T02:46:23.641Z,20.09
2019-06-20T02:48:27.473Z,20.09
2019-06-20T02:50:31.525Z,19.97
2019-06-20T02:52:35.434Z,19.81
2019-06-20T02:54:39.247Z,19.67
2019-06-20T02:56:43.093Z,19.56
2019-06-20T02:58:47.033Z,19.44
2019-06-20T03:00:57.183Z,19.40
2019-06-20T03:03:00.956Z,19.33
2019-06-20T03:05:05.307Z,19.25
2019-06-20T03:07:09.183Z,19.17
2019-06-20T03:09:13.062Z,19.10
2019-06-20T03:11:16.971Z,19.08
2019-06-20T03:13:20.938Z,19.05
2019-06-20T03:15:25.798Z,19.01
2019-06-20T03:17:29.792Z,19.00
2019-06-20T03:19:33.609Z,18.95
2019-06-20T03:21:37.565Z,18.99
2019-06-20T03:23:41.485Z,18.99
2019-06-20T03:25:45.393Z,19.05
2019-06-20T03:27:49.247Z,19.13
2019-06-20T03:29:53.141Z,19.18
2019-06-20T03:31:57.113Z,19.25
2019-06-20T03:34:00.961Z,19.32
2019-06-20T03:36:04.996Z,19.41
2019-06-20T03:38:08.836Z,19.52
2019-06-20T03:40:13.015Z,19.60
2019-06-20T03:42:16.776Z,19.64
2019-06-20T03:44:20.688Z,19.62
2019-06-20T03:46:24.580Z,19.58
2019-06-20T03:48:28.546Z,19.53
2019-06-20T03:50:32.631Z,19.44
2019-06-20T03:52:38.229Z,19.32
2019-06-20T03:54:42.045Z,19.25
2019-06-20T03:56:45.946Z,19.25
2019-06-20T03:58:49.833Z,19.30
2019-06-20T04:00:53.779Z,19.40
2019-06-20T04:02:57.707Z,19.42
2019-06-20T04:05:01.425Z,19.46
2019-06-20T04:07:05.355Z,19.52
2019-06-20T04:09:09.226Z,19.53
2019-06-20T04:11:13.149Z,19.50
2019-06-20T04:13:17.097Z,19.51
2019-06-20T04:15:20.959Z,19.49
2019-06-20T04:17:24.784Z,19.44
2019-06-20T04:19:28.676Z,19.43
2019-06-20T04:21:32.582Z,19.41
2019-06-20T04:23:36.507Z,19.36
2019-06-20T04:25:40.384Z,19.36
2019-06-20T04:27:44.318Z,19.40
2019-06-20T04:29:48.191Z,19.43
2019-06-20T04:31:52.131Z,19.46
2019-06-20T04:33:56.004Z,19.52
2019-06-20T04:35:59.937Z,19.57
2019-06-20T04:38:03.873Z,19.61
2019-06-20T04:40:08.161Z,19.66
2019-06-20T04:42:12.058Z,19.71
2019-06-20T04:44:15.964Z,19.77
2019-06-20T04:46:31.611Z,19.81
2019-06-20T04:48:35.727Z,19.84
2019-06-20T04:50:39.544Z,19.88
2019-06-20T04:52:43.442Z,19.94
2019-06-20T04:54:47.354Z,20.00
2019-06-20T04:56:51.244Z,20.05
2019-06-20T04:58:55.254Z,20.08
2019-06-20T05:01:02.553Z,20.11
2019-06-20T05:03:06.247Z,20.13
2019-06-20T05:05:10.433Z,20.15
2019-06-20T05:07:18.930Z,20.16
2019-06-20T05:09:22.669Z,20.18
2019-06-20T05:11:27.533Z,20.18
2019-06-20T05:13:31.473Z,20.20
2019-06-20T05:15:51.113Z,20.21
2019-06-20T05:17:41.166Z,20.22
2019-06-20T05:19:45.051Z,20.21
2019-06-20T05:21:48.956Z,20.23
2019-06-20T05:23:52.856Z,20.26
2019-06-20T05:25:56.787Z,20.28
2019-06-20T05:28:00.682Z,20.31
2019-06-20T05:30:05.621Z,20.34
2019-06-20T05:32:09.521Z,20.36
2019-06-20T05:34:13.425Z,20.37
2019-06-20T05:36:17.405Z,20.38
2019-06-20T05:38:21.233Z,20.41
2019-06-20T05:40:25.278Z,20.47
2019-06-20T05:42:29.024Z,20.49
2019-06-20T05:44:33.037Z,20.51
2019-06-20T05:46:36.824Z,20.51
2019-06-20T05:48:40.738Z,20.51
2019-06-20T05:50:44.714Z,20.51
2019-06-20T05:52:48.590Z,20.50
2019-06-20T05:54:52.577Z,20.49
2019-06-20T05:56:56.387Z,20.50
2019-06-20T05:59:00.123Z,20.51
2019-06-20T06:01:04.056Z,20.52
2019-06-20T06:03:07.939Z,20.57
2019-06-20T06:05:13.406Z,20.64
2019-06-20T06:07:17.128Z,20.65
2019-06-20T06:09:24.733Z,20.65
2019-06-20T06:11:28.592Z,20.59
2019-06-20T06:13:32.513Z,20.55
2019-06-20T06:15:36.424Z,20.55
2019-06-20T06:17:40.319Z,20.55
2019-06-20T06:19:44.642Z,20.54
2019-06-20T06:21:48.524Z,20.52
2019-06-20T06:23:52.483Z,20.53
2019-06-20T06:25:57.527Z,20.52
2019-06-20T06:28:01.281Z,20.53
2019-06-20T06:30:07.089Z,20.57
2019-06-20T06:32:11.078Z,20.58
2019-06-20T06:34:14.927Z,20.55
2019-06-20T06:36:18.817Z,20.54
2019-06-20T06:38:22.651Z,20.48
2019-06-20T06:40:27.686Z,20.43
2019-06-20T06:42:31.480Z,20.41
2019-06-20T06:44:35.387Z,20.38
2019-06-20T06:46:45.862Z,20.37
2019-06-20T06:48:44.969Z,20.35
2019-06-20T06:50:48.836Z,20.32
2019-06-20T06:52:52.624Z,20.26
2019-06-20T06:54:56.574Z,20.20
2019-06-20T06:57:00.452Z,20.18
2019-06-20T06:59:04.498Z,20.11
2019-06-20T07:01:10.289Z,20.08
2019-06-20T07:03:14.036Z,20.09
2019-06-20T07:05:18.158Z,20.11
2019-06-20T07:07:22.020Z,20.15
2019-06-20T07:09:25.930Z,20.21
2019-06-20T07:11:29.990Z,20.25
2019-06-20T07:13:33.744Z,20.30
2019-06-20T07:15:37.779Z,20.32
2019-06-20T07:17:43.041Z,20.34
2019-06-20T07:19:46.918Z,20.36
2019-06-20T07:21:50.801Z,20.39
2019-06-20T07:23:54.695Z,20.42
2019-06-20T07:25:58.669Z,20.47
2019-06-20T07:28:06.109Z,20.52
2019-06-20T07:30:11.076Z,20.60
2019-06-20T07:32:15.028Z,20.67
2019-06-20T07:34:18.992Z,20.75
2019-06-20T07:36:22.825Z,20.83
2019-06-20T07:38:26.718Z,20.90
2019-06-20T07:40:30.722Z,20.96
2019-06-20T07:42:34.525Z,21.01
2019-06-20T07:44:38.460Z,21.04
2019-06-20T07:46:42.419Z,21.07
2019-06-20T07:48:46.261Z,21.07
2019-06-20T07:50:50.162Z,21.06
2019-06-20T07:53:02.046Z,21.03
2019-06-20T07:54:59.619Z,21.02
2019-06-20T07:57:03.523Z,21.04
2019-06-20T07:59:07.496Z,21.06
2019-06-20T08:01:11.474Z,21.11
2019-06-20T08:03:15.200Z,21.16
2019-06-20T08:05:20.465Z,21.21
2019-06-20T08:07:24.270Z,21.25
2019-06-20T08:09:43.838Z,21.31
2019-06-20T08:11:33.783Z,21.40
2019-06-20T08:13:37.598Z,21.52
2019-06-20T08:17:41.297Z,21.83
2019-06-20T08:19:45.246Z,21.92
2019-06-20T08:21:49.136Z,22.04
2019-06-20T08:23:53.044Z,22.17
2019-06-20T08:25:58.822Z,22.27
2019-06-20T08:28:04.277Z,22.35
2019-06-20T08:30:08.584Z,22.40
2019-06-20T08:32:12.595Z,22.40
2019-06-20T08:34:16.661Z,22.38
2019-06-20T08:36:20.469Z,22.39
2019-06-20T08:38:24.347Z,22.37
2019-06-20T08:40:29.214Z,22.43
2019-06-20T08:42:32.933Z,22.49
2019-06-20T08:44:36.847Z,22.56
2019-06-20T08:46:40.734Z,22.63
2019-06-20T08:48:44.607Z,22.70
2019-06-20T08:50:48.417Z,22.82
2019-06-20T08:52:52.348Z,22.86
2019-06-20T08:54:56.656Z,22.89
2019-06-20T08:57:01.574Z,22.93
2019-06-20T08:59:05.995Z,22.91
2019-06-20T09:01:09.827Z,22.91
2019-06-20T09:03:13.659Z,22.90
2019-06-20T09:05:17.821Z,22.89
2019-06-20T09:07:21.579Z,22.89
2019-06-20T09:09:25.570Z,22.91
2019-06-20T09:11:29.267Z,22.93
2019-06-20T09:13:33.118Z,22.93
2019-06-20T09:15:37.245Z,23.03
2019-06-20T09:17:41.023Z,23.15
2019-06-20T09:19:44.823Z,23.31
2019-06-20T09:21:48.721Z,23.47
2019-06-20T09:23:54.121Z,23.55
2019-06-20T09:25:57.974Z,23.69
2019-06-20T09:28:02.650Z,23.85
2019-06-20T09:30:07.007Z,23.99
2019-06-20T09:32:10.860Z,24.11
2019-06-20T09:34:14.823Z,24.19
2019-06-20T09:36:18.722Z,24.25
2019-06-20T09:38:23.751Z,24.35
2019-06-20T09:40:27.776Z,24.44
2019-06-20T09:42:32.732Z,24.56
2019-06-20T09:44:36.465Z,24.65
2019-06-20T09:46:40.260Z,24.71
2019-06-20T09:48:44.043Z,24.77
2019-06-20T09:50:49.340Z,24.91
2019-06-20T09:52:54.799Z,25.02
2019-06-20T09:54:59.054Z,25.12
2019-06-20T09:57:02.781Z,25.20
2019-06-20T09:59:06.585Z,25.29
2019-06-20T10:01:10.477Z,25.39
2019-06-20T10:03:14.411Z,25.49
2019-06-20T10:05:19.522Z,25.62
2019-06-20T10:07:23.320Z,25.73
2019-06-20T10:09:27.111Z,25.77
2019-06-20T10:11:31.099Z,25.84
2019-06-20T10:13:35.132Z,25.94
2019-06-20T10:15:39.669Z,26.03
2019-06-20T10:17:43.432Z,26.16
2019-06-20T10:19:48.320Z,26.22
2019-06-20T10:21:52.095Z,26.28
2019-06-20T10:23:56.087Z,26.32
2019-06-20T10:25:59.822Z,26.31
2019-06-20T10:28:03.854Z,26.24
2019-06-20T10:30:14.268Z,26.20
2019-06-20T10:32:13.655Z,26.15
2019-06-20T10:34:17.445Z,26.09
2019-06-20T10:36:21.178Z,26.11
2019-06-20T10:38:25.104Z,26.20
2019-06-20T10:40:29.188Z,26.33
2019-06-20T10:42:32.892Z,26.38
2019-06-20T10:44:36.592Z,26.42
2019-06-20T10:46:40.463Z,26.51
2019-06-20T10:48:44.449Z,26.57
2019-06-20T10:50:49.801Z,26.52
2019-06-20T10:52:53.903Z,26.53
2019-06-20T10:54:57.652Z,26.47
2019-06-20T10:57:01.402Z,26.40
2019-06-20T10:59:05.551Z,26.38
2019-06-20T11:01:09.430Z,26.35
2019-06-20T11:03:13.141Z,26.32
2019-06-20T11:05:18.908Z,26.29
2019-06-20T11:07:22.814Z,26.27
2019-06-20T11:11:29.257Z,26.25
2019-06-20T11:13:33.063Z,26.35
2019-06-20T11:15:37.524Z,26.43
2019-06-20T11:17:44.050Z,26.63
2019-06-20T11:19:48.139Z,26.82
2019-06-20T11:21:51.856Z,26.98
2019-06-20T11:23:55.650Z,27.03
2019-06-20T11:25:59.561Z,27.05
2019-06-20T11:28:03.498Z,27.21
2019-06-20T11:30:09.715Z,27.33
2019-06-20T11:32:13.516Z,27.38
2019-06-20T11:34:17.417Z,27.39
2019-06-20T11:36:21.403Z,27.39
2019-06-20T11:38:25.222Z,27.53
2019-06-20T11:40:29.093Z,27.63
2019-06-20T11:42:32.975Z,27.61
2019-06-20T11:44:37.032Z,27.57
2019-06-20T11:46:40.860Z,27.52
2019-06-20T11:48:44.562Z,27.51
2019-06-20T11:50:48.619Z,27.49
2019-06-20T11:52:52.570Z,27.47
2019-06-20T11:54:56.286Z,27.40
2019-06-20T11:56:59.986Z,27.36
2019-06-20T11:59:03.769Z,27.39
2019-06-20T12:01:07.661Z,27.53
2019-06-20T12:03:11.485Z,27.72
2019-06-20T12:05:16.044Z,27.95
2019-06-20T12:07:19.946Z,28.15
2019-06-20T12:09:23.822Z,28.17
2019-06-20T12:11:27.540Z,28.18
2019-06-20T12:13:31.410Z,28.28
2019-06-20T12:15:35.460Z,28.48
2019-06-20T12:17:40.989Z,28.75
2019-06-20T12:19:44.763Z,29.09
2019-06-20T12:21:49.130Z,29.33
2019-06-20T12:23:52.992Z,29.45
2019-06-20T12:25:56.977Z,29.47
2019-06-20T12:28:00.772Z,29.56
2019-06-20T12:30:05.526Z,29.63
2019-06-20T12:32:10.088Z,29.68
2019-06-20T12:34:13.911Z,29.73
2019-06-20T12:36:17.628Z,29.88
2019-06-20T12:38:21.568Z,30.04
2019-06-20T12:40:25.587Z,30.31
2019-06-20T12:42:29.351Z,30.68
2019-06-20T12:44:33.243Z,30.79
2019-06-20T12:46:39.372Z,30.77
2019-06-20T12:48:42.831Z,30.70
2019-06-20T12:50:47.614Z,30.70
2019-06-20T12:52:51.356Z,30.71
2019-06-20T12:54:55.066Z,30.74
2019-06-20T12:56:58.993Z,30.79
2019-06-20T12:59:02.959Z,30.77
2019-06-20T13:01:06.859Z,30.63
2019-06-20T13:03:10.642Z,30.37
2019-06-20T13:05:16.447Z,30.13
2019-06-20T13:07:20.382Z,29.96
2019-06-20T13:09:24.089Z,29.77
2019-06-20T13:11:28.135Z,29.55
2019-06-20T13:13:31.841Z,29.33
2019-06-20T13:15:35.553Z,29.17
2019-06-20T13:17:41.127Z,29.06
2019-06-20T13:19:44.853Z,28.99
2019-06-20T13:21:48.679Z,28.90
2019-06-20T13:23:52.383Z,28.84
2019-06-20T13:25:56.099Z,28.75
2019-06-20T13:28:00.945Z,28.67
2019-06-20T13:30:05.814Z,28.61
2019-06-20T13:32:09.544Z,28.55
2019-06-20T13:34:13.309Z,28.49
2019-06-20T13:36:17.011Z,28.42
2019-06-20T13:38:20.911Z,28.28
2019-06-20T13:40:24.798Z,28.18
2019-06-20T13:42:28.608Z,28.13
2019-06-20T13:44:32.425Z,28.07
2019-06-20T13:46:36.200Z,28.02
2019-06-20T13:48:40.805Z,28.00
2019-06-20T13:50:45.551Z,27.98
2019-06-20T13:52:51.186Z,27.94
2019-06-20T13:54:54.802Z,27.90
2019-06-20T13:56:58.711Z,27.86
2019-06-20T13:59:02.463Z,27.83
2019-06-20T14:01:06.325Z,27.80
2019-06-20T14:03:10.162Z,27.75
2019-06-20T14:05:14.724Z,27.70
2019-06-20T14:07:18.481Z,27.65
2019-06-20T14:09:22.327Z,27.57
2019-06-20T14:11:26.030Z,27.49
2019-06-20T14:13:29.962Z,27.45
2019-06-20T14:15:33.944Z,27.38
2019-06-20T14:17:38.196Z,27.34
2019-06-20T14:19:42.189Z,27.30
2019-06-20T14:24:43.839Z,27.18
2019-06-20T14:26:48.873Z,27.08
2019-06-20T14:28:52.603Z,27.03
2019-06-20T14:30:57.667Z,26.97
2019-06-20T14:33:01.663Z,26.91
2019-06-20T14:35:05.664Z,26.86
2019-06-20T14:37:09.483Z,26.81
2019-06-20T14:39:13.335Z,26.77
2019-06-20T14:41:17.292Z,26.74
2019-06-20T14:43:21.022Z,26.69
2019-06-20T14:45:24.852Z,26.69
2019-06-20T14:47:28.830Z,26.66
2019-06-20T14:49:32.661Z,26.64
2019-06-20T14:51:36.556Z,26.62
2019-06-20T14:53:40.458Z,26.59
2019-06-20T14:55:44.779Z,26.57
2019-06-20T14:57:50.494Z,26.53
2019-06-20T14:59:54.460Z,26.49
2019-06-20T15:01:58.130Z,26.44
2019-06-20T15:04:02.168Z,26.42
2019-06-20T15:06:06.000Z,26.42
2019-06-20T15:08:09.814Z,26.38
2019-06-20T15:10:13.828Z,26.38
2019-06-20T15:12:17.694Z,26.34
2019-06-20T15:14:21.379Z,26.31
2019-06-20T15:16:25.168Z,26.30
2019-06-20T15:18:28.926Z,26.29
2019-06-20T15:20:32.637Z,26.26
2019-06-20T15:22:36.568Z,26.28
2019-06-20T15:24:40.564Z,26.28
2019-06-20T15:26:47.122Z,26.31
2019-06-20T15:28:51.822Z,26.30
2019-06-20T15:30:57.176Z,26.28
2019-06-20T15:33:09.712Z,26.24
2019-06-20T15:35:07.215Z,26.20
2019-06-20T15:37:11.033Z,26.22
2019-06-20T15:39:14.948Z,26.22
2019-06-20T15:41:18.991Z,26.24
2019-06-20T15:43:22.700Z,26.24
2019-06-20T15:45:26.461Z,26.26
2019-06-20T15:47:30.317Z,26.26
2019-06-20T15:49:34.072Z,26.27
2019-06-20T15:51:38.084Z,26.31
2019-06-20T15:53:41.788Z,26.34
2019-06-20T15:55:45.606Z,26.36
2019-06-20T15:57:49.464Z,26.36
2019-06-20T15:59:53.193Z,26.35
2019-06-20T16:01:56.934Z,26.31
2019-06-20T16:04:00.853Z,26.31
2019-06-20T16:06:04.877Z,26.30
2019-06-20T16:08:08.902Z,26.28
2019-06-20T16:10:13.995Z,26.26
2019-06-20T16:12:17.775Z,26.26
2019-06-20T16:14:21.564Z,26.23
2019-06-20T16:16:25.433Z,26.21
2019-06-20T16:18:29.149Z,26.20
2019-06-20T16:20:33.048Z,26.22
2019-06-20T16:22:36.830Z,26.23
2019-06-20T16:24:40.545Z,26.26
2019-06-20T16:26:44.332Z,26.28
2019-06-20T16:28:48.074Z,26.27
2019-06-20T16:31:07.664Z,26.26
2019-06-20T16:32:57.284Z,26.25
2019-06-20T16:35:01.186Z,26.23
2019-06-20T16:37:10.093Z,26.22
2019-06-20T16:39:10.655Z,26.22
2019-06-20T16:41:14.438Z,26.20
2019-06-20T16:43:18.151Z,26.19
2019-06-20T16:45:22.121Z,26.19
2019-06-20T16:47:26.036Z,26.13
2019-06-20T16:49:29.991Z,26.08
2019-06-20T16:51:33.840Z,26.00
2019-06-20T16:53:37.640Z,25.92
2019-06-20T16:55:41.493Z,25.88
2019-06-20T16:57:45.352Z,25.81
2019-06-20T16:59:49.311Z,25.76
2019-06-20T17:01:53.211Z,25.70
2019-06-20T17:03:57.133Z,25.67
2019-06-20T17:06:00.975Z,25.63
2019-06-20T17:08:05.105Z,25.60
2019-06-20T17:10:09.667Z,25.58
2019-06-20T17:12:13.635Z,25.52
2019-06-20T17:14:17.284Z,25.49
2019-06-20T17:16:21.181Z,25.49
2019-06-20T17:18:24.899Z,25.46
2019-06-20T17:20:28.856Z,25.42
2019-06-20T17:22:32.637Z,25.39
2019-06-20T17:24:36.431Z,25.36
2019-06-20T17:26:40.341Z,25.33
2019-06-20T17:28:44.169Z,25.33
2019-06-20T17:30:47.939Z,25.31
2019-06-20T17:32:51.827Z,25.25
2019-06-20T17:34:55.545Z,25.22
2019-06-20T17:36:59.263Z,25.21
2019-06-20T17:39:02.989Z,25.20
2019-06-20T17:41:06.761Z,25.16
2019-06-20T17:43:10.457Z,25.11
2019-06-20T17:45:15.424Z,25.09
2019-06-20T17:47:19.266Z,25.10
2019-06-20T17:49:23.171Z,25.10
2019-06-20T17:51:26.890Z,25.08
2019-06-20T17:53:30.606Z,25.10
2019-06-20T17:55:34.545Z,25.09
2019-06-20T17:57:38.347Z,25.08
2019-06-20T17:59:42.073Z,25.08
2019-06-20T18:01:45.802Z,25.05
2019-06-20T18:03:49.589Z,25.03
2019-06-20T18:05:53.307Z,25.00
2019-06-20T18:07:57.089Z,24.99
2019-06-20T18:10:00.799Z,24.98
2019-06-20T18:12:04.881Z,24.91
2019-06-20T18:14:08.764Z,24.86
2019-06-20T18:16:24.493Z,24.79
2019-06-20T18:18:18.018Z,24.71
2019-06-20T18:20:22.176Z,24.60
2019-06-20T18:22:26.064Z,24.52
2019-06-20T18:24:29.955Z,24.45
2019-06-20T18:26:33.748Z,24.36
2019-06-20T18:28:37.452Z,24.29
2019-06-20T18:30:43.009Z,24.26
2019-06-20T18:32:46.826Z,24.25
2019-06-20T18:35:01.445Z,24.22
2019-06-20T18:36:56.135Z,24.16
2019-06-20T18:38:59.839Z,24.14
2019-06-20T18:41:03.747Z,24.07
2019-06-20T18:43:07.542Z,23.97
2019-06-20T18:45:11.733Z,23.91
2019-06-20T18:47:15.519Z,23.88
2019-06-20T18:49:19.259Z,23.83
2019-06-20T18:51:23.200Z,23.76
2019-06-20T18:53:27.068Z,23.73
2019-06-20T18:55:30.783Z,23.71
2019-06-20T18:57:34.571Z,23.68
2019-06-20T18:59:38.381Z,23.66
2019-06-20T19:01:42.097Z,23.63
2019-06-20T19:03:45.863Z,23.59
2019-06-20T19:05:49.531Z,23.52
2019-06-20T19:07:53.274Z,23.40
2019-06-20T19:09:57.429Z,23.31
2019-06-20T19:12:01.199Z,23.28
2019-06-20T19:14:05.078Z,23.23
2019-06-20T19:16:08.854Z,23.18
2019-06-20T19:18:13.144Z,23.10
2019-06-20T19:20:17.456Z,23.06
2019-06-20T19:22:21.353Z,23.03
2019-06-20T19:24:25.106Z,22.99
2019-06-20T19:26:28.747Z,22.99
2019-06-20T19:28:32.726Z,22.96
2019-06-20T19:30:50.249Z,22.92
2019-06-20T19:32:54.165Z,22.89
2019-06-20T19:35:02.216Z,22.84
2019-06-20T19:37:03.506Z,22.82
2019-06-20T19:39:07.903Z,22.79
2019-06-20T19:41:11.615Z,22.76
2019-06-20T19:43:15.323Z,22.69
2019-06-20T19:45:19.382Z,22.68
2019-06-20T19:47:23.290Z,22.65
2019-06-20T19:49:27.057Z,22.65
2019-06-20T19:51:30.885Z,22.66
2019-06-20T19:53:34.711Z,22.71
2019-06-20T19:55:38.894Z,22.72
2019-06-20T19:57:42.657Z,22.73
2019-06-20T19:59:46.643Z,22.75
2019-06-20T20:01:50.614Z,22.73
2019-06-20T20:03:54.567Z,22.71
2019-06-20T20:05:58.658Z,22.66
2019-06-20T20:08:02.756Z,22.58
2019-06-20T20:10:07.315Z,22.51
2019-06-20T20:12:11.105Z,22.50
2019-06-20T20:14:14.843Z,22.52
2019-06-20T20:16:18.535Z,22.51
2019-06-20T20:18:22.337Z,22.46
2019-06-20T20:20:26.040Z,22.36
2019-06-20T20:22:29.759Z,22.28
2019-06-20T20:24:33.471Z,22.27
2019-06-20T20:26:37.257Z,22.27
2019-06-20T20:28:40.994Z,22.20
2019-06-20T20:30:45.065Z,22.13
2019-06-20T20:32:48.834Z,22.09
2019-06-20T20:34:52.724Z,22.02
2019-06-20T20:36:56.439Z,21.96
2019-06-20T20:39:00.184Z,21.93
2019-06-20T20:41:04.025Z,21.89
2019-06-20T20:43:08.002Z,21.88
2019-06-20T20:45:12.384Z,21.85
2019-06-20T20:47:16.236Z,21.80
2019-06-20T20:49:20.085Z,21.78
2019-06-20T20:51:23.850Z,21.77
2019-06-20T20:53:27.756Z,21.76
2019-06-20T20:55:31.483Z,21.74
2019-06-20T20:57:35.357Z,21.76
2019-06-20T20:59:39.250Z,21.80
2019-06-20T21:01:43.067Z,21.84
2019-06-20T21:03:47.067Z,21.87
2019-06-20T21:05:51.973Z,21.91
2019-06-20T21:07:55.760Z,21.96
2019-06-20T21:09:59.488Z,21.97
2019-06-20T21:12:03.284Z,21.93
2019-06-20T21:14:07.180Z,21.88
2019-06-20T21:16:11.109Z,21.82
2019-06-20T21:18:14.948Z,21.79
2019-06-20T21:20:19.319Z,21.69
2019-06-20T21:22:23.142Z,21.70
2019-06-20T21:24:26.852Z,21.71
2019-06-20T21:26:30.764Z,21.72
2019-06-20T21:28:34.726Z,21.69
2019-06-20T21:30:38.655Z,21.66
2019-06-20T21:32:42.533Z,21.60
2019-06-20T21:34:46.396Z,21.53
2019-06-20T21:36:50.262Z,21.47
2019-06-20T21:38:54.241Z,21.40
2019-06-20T21:40:58.165Z,21.37
2019-06-20T21:43:04.092Z,21.37
2019-06-20T21:45:08.621Z,21.37
2019-06-20T21:47:12.455Z,21.36
2019-06-20T21:49:16.368Z,21.36
2019-06-20T21:51:20.260Z,21.33
2019-06-20T21:53:24.299Z,21.29
2019-06-20T21:55:28.157Z,21.24
2019-06-20T21:57:31.964Z,21.22
2019-06-20T21:59:37.734Z,21.23
2019-06-20T22:01:41.779Z,21.22
2019-06-20T22:03:45.621Z,21.25
2019-06-20T22:05:49.525Z,21.29
2019-06-20T22:07:53.348Z,21.28
2019-06-20T22:09:57.249Z,21.29
2019-06-20T22:12:01.171Z,21.29
2019-06-20T22:14:05.401Z,21.27
2019-06-20T22:16:09.194Z,21.26
2019-06-20T22:18:13.218Z,21.22
2019-06-20T22:20:17.531Z,21.18
2019-06-20T22:22:21.360Z,21.16
2019-06-20T22:24:25.191Z,21.14
2019-06-20T22:26:29.121Z,21.14
2019-06-20T22:28:33.071Z,21.18
2019-06-20T22:30:43.249Z,21.19
2019-06-20T22:32:47.148Z,21.18
2019-06-20T22:34:51.083Z,21.19
2019-06-20T22:36:55.131Z,21.19
2019-06-20T22:38:58.891Z,21.19
2019-06-20T22:41:02.795Z,21.20
2019-06-20T22:43:06.776Z,21.17
2019-06-20T22:45:11.946Z,21.16
2019-06-20T22:47:15.714Z,21.15
2019-06-20T22:49:19.776Z,21.10
2019-06-20T22:51:23.612Z,20.96
2019-06-20T22:53:27.492Z,20.89
2019-06-20T22:55:31.485Z,20.89
2019-06-20T22:57:35.225Z,20.81
2019-06-20T22:59:39.120Z,20.63
2019-06-20T23:01:45.655Z,20.63
2019-06-20T23:03:50.441Z,20.59
2019-06-20T23:05:54.407Z,20.60
2019-06-20T23:07:58.301Z,20.58
2019-06-20T23:10:10.305Z,20.56
2019-06-20T23:12:08.133Z,20.53
2019-06-20T23:14:11.987Z,20.49
2019-06-20T23:16:15.987Z,20.43
2019-06-20T23:18:19.898Z,20.43
2019-06-20T23:20:23.882Z,20.39
2019-06-20T23:22:27.686Z,20.35
2019-06-20T23:24:31.516Z,20.36
2019-06-20T23:26:35.242Z,20.30
2019-06-20T23:28:39.199Z,20.24
2019-06-20T23:30:43.033Z,20.16
2019-06-20T23:32:47.008Z,20.09
2019-06-20T23:34:50.837Z,19.97
2019-06-20T23:36:54.819Z,19.97
2019-06-20T23:38:58.662Z,19.95
2019-06-20T23:41:02.665Z,19.99
2019-06-20T23:43:06.546Z,20.05
2019-06-20T23:45:10.815Z,20.04
2019-06-20T23:47:14.691Z,20.07
2019-06-20T23:49:18.650Z,20.04
2019-06-20T23:51:25.591Z,19.97
2019-06-20T23:53:29.281Z,19.90
2019-06-20T23:55:33.263Z,19.85
2019-06-20T23:57:37.089Z,19.85
2019-06-20T23:59:41.040Z,19.90
